sensor_id;sensor_type;location;lat;lon;timestamp;P1;durP1;ratioP1;P2;durP2;ratioP2
3249;SDS011;1637;42.020;23.992;2022-08-11T00:01:09;4.97;;;4.57;;
3249;SDS011;1637;42.020;23.992;2022-08-11T00:03:42;5.33;;;4.83;;
3249;SDS011;1637;42.020;23.992;2022-08-11T00:06:12;5.60;;;5.17;;
3249;SDS011;1637;42.020;23.992;2022-08-11T00:08:40;7.07;;;5.73;;
3249;SDS011;1637;42.020;23.992;2022-08-11T00:11:09;7.70;;;5.10;;
3249;SDS011;1637;42.020;23.992;2022-08-11T00:13:38;5.23;;;4.73;;
3249;SDS011;1637;42.020;23.992;2022-08-11T00:16:14;5.70;;;5.20;;
3249;SDS011;1637;42.020;23.992;2022-08-11T00:18:44;6.97;;;6.37;;
3249;SDS011;1637;42.020;23.992;2022-08-11T00:21:12;7.07;;;6.10;;
3249;SDS011;1637;42.020;23.992;2022-08-11T00:23:41;5.03;;;4.63;;
3249;SDS011;1637;42.020;23.992;2022-08-11T00:26:10;5.67;;;5.10;;
3249;SDS011;1637;42.020;23.992;2022-08-11T00:28:38;6.80;;;4.73;;
3249;SDS011;1637;42.020;23.992;2022-08-11T00:31:07;5.83;;;5.33;;
3249;SDS011;1637;42.020;23.992;2022-08-11T00:33:39;6.70;;;5.13;;
3249;SDS011;1637;42.020;23.992;2022-08-11T00:36:07;6.73;;;6.00;;
3249;SDS011;1637;42.020;23.992;2022-08-11T00:38:38;7.10;;;5.40;;
3249;SDS011;1637;42.020;23.992;2022-08-11T00:41:12;5.77;;;5.27;;
3249;SDS011;1637;42.020;23.992;2022-08-11T00:43:50;8.23;;;5.30;;
3249;SDS011;1637;42.020;23.992;2022-08-11T00:46:39;15.43;;;7.40;;
3249;SDS011;1637;42.020;23.992;2022-08-11T00:49:22;12.80;;;10.27;;
3249;SDS011;1637;42.020;23.992;2022-08-11T00:51:59;13.30;;;10.30;;
3249;SDS011;1637;42.020;23.992;2022-08-11T01:01:14;12.87;;;10.87;;
3249;SDS011;1637;42.020;23.992;2022-08-11T01:03:58;14.17;;;9.70;;
3249;SDS011;1637;42.020;23.992;2022-08-11T01:07:02;19.73;;;13.10;;
3249;SDS011;1637;42.020;23.992;2022-08-11T01:09:58;14.57;;;9.67;;
3249;SDS011;1637;42.020;23.992;2022-08-11T01:12:42;12.40;;;8.73;;
3249;SDS011;1637;42.020;23.992;2022-08-11T01:27:53;15.60;;;8.80;;
3249;SDS011;1637;42.020;23.992;2022-08-11T01:30:54;10.90;;;7.93;;
3249;SDS011;1637;42.020;23.992;2022-08-11T01:40:17;8.43;;;7.57;;
3249;SDS011;1637;42.020;23.992;2022-08-11T01:55:39;13.97;;;8.47;;
3249;SDS011;1637;42.020;23.992;2022-08-11T01:58:18;10.60;;;9.00;;
3249;SDS011;1637;42.020;23.992;2022-08-11T02:00:53;19.90;;;15.33;;
3249;SDS011;1637;42.020;23.992;2022-08-11T02:03:31;32.53;;;21.53;;
3249;SDS011;1637;42.020;23.992;2022-08-11T02:06:09;24.33;;;18.50;;
3249;SDS011;1637;42.020;23.992;2022-08-11T02:08:55;42.17;;;29.77;;
3249;SDS011;1637;42.020;23.992;2022-08-11T02:11:35;33.27;;;24.30;;
3249;SDS011;1637;42.020;23.992;2022-08-11T02:14:09;22.07;;;15.50;;
3249;SDS011;1637;42.020;23.992;2022-08-11T02:19:38;15.17;;;13.57;;
3249;SDS011;1637;42.020;23.992;2022-08-11T02:22:41;22.80;;;13.10;;
3249;SDS011;1637;42.020;23.992;2022-08-11T02:25:36;16.00;;;10.57;;
3249;SDS011;1637;42.020;23.992;2022-08-11T02:28:09;15.87;;;10.97;;
3249;SDS011;1637;42.020;23.992;2022-08-11T02:30:48;20.77;;;11.63;;
3249;SDS011;1637;42.020;23.992;2022-08-11T02:33:44;15.53;;;10.83;;
3249;SDS011;1637;42.020;23.992;2022-08-11T02:36:16;14.10;;;10.80;;
3249;SDS011;1637;42.020;23.992;2022-08-11T02:38:48;19.97;;;12.50;;
3249;SDS011;1637;42.020;23.992;2022-08-11T02:41:20;19.17;;;15.03;;
3249;SDS011;1637;42.020;23.992;2022-08-11T02:44:15;14.33;;;10.93;;
3249;SDS011;1637;42.020;23.992;2022-08-11T02:46:57;17.47;;;10.10;;
3249;SDS011;1637;42.020;23.992;2022-08-11T02:49:39;12.53;;;10.83;;
3249;SDS011;1637;42.020;23.992;2022-08-11T02:52:30;13.30;;;9.83;;
3249;SDS011;1637;42.020;23.992;2022-08-11T02:55:13;22.83;;;11.50;;
3249;SDS011;1637;42.020;23.992;2022-08-11T02:57:49;17.50;;;13.53;;
3249;SDS011;1637;42.020;23.992;2022-08-11T03:00:24;18.43;;;11.50;;
3249;SDS011;1637;42.020;23.992;2022-08-11T03:02:55;15.60;;;12.17;;
3249;SDS011;1637;42.020;23.992;2022-08-11T03:11:18;14.00;;;11.13;;
3249;SDS011;1637;42.020;23.992;2022-08-11T03:14:11;18.00;;;11.40;;
3249;SDS011;1637;42.020;23.992;2022-08-11T03:17:05;17.60;;;11.90;;
3249;SDS011;1637;42.020;23.992;2022-08-11T03:19:45;15.10;;;10.57;;
3249;SDS011;1637;42.020;23.992;2022-08-11T03:22:21;12.40;;;10.33;;
3249;SDS011;1637;42.020;23.992;2022-08-11T03:24:54;14.50;;;9.80;;
3249;SDS011;1637;42.020;23.992;2022-08-11T03:27:45;21.50;;;14.10;;
3249;SDS011;1637;42.020;23.992;2022-08-11T03:30:20;25.47;;;17.07;;
3249;SDS011;1637;42.020;23.992;2022-08-11T03:32:56;27.43;;;13.20;;
3249;SDS011;1637;42.020;23.992;2022-08-11T03:35:51;28.17;;;18.77;;
3249;SDS011;1637;42.020;23.992;2022-08-11T03:38:32;34.73;;;24.10;;
3249;SDS011;1637;42.020;23.992;2022-08-11T03:41:14;15.50;;;12.93;;
3249;SDS011;1637;42.020;23.992;2022-08-11T03:44:24;26.23;;;19.30;;
3249;SDS011;1637;42.020;23.992;2022-08-11T03:47:04;17.17;;;11.33;;
3249;SDS011;1637;42.020;23.992;2022-08-11T03:49:52;14.17;;;11.43;;
3249;SDS011;1637;42.020;23.992;2022-08-11T03:52:39;32.10;;;25.30;;
3249;SDS011;1637;42.020;23.992;2022-08-11T03:55:17;16.10;;;13.60;;
3249;SDS011;1637;42.020;23.992;2022-08-11T04:01:26;17.10;;;12.70;;
3249;SDS011;1637;42.020;23.992;2022-08-11T04:07:25;15.27;;;12.00;;
3249;SDS011;1637;42.020;23.992;2022-08-11T04:10:36;16.37;;;13.47;;
3249;SDS011;1637;42.020;23.992;2022-08-11T04:16:43;26.07;;;22.67;;
3249;SDS011;1637;42.020;23.992;2022-08-11T04:22:40;14.43;;;11.30;;
3249;SDS011;1637;42.020;23.992;2022-08-11T04:28:50;15.13;;;11.70;;
3249;SDS011;1637;42.020;23.992;2022-08-11T04:31:37;22.80;;;11.57;;
3249;SDS011;1637;42.020;23.992;2022-08-11T04:40:33;33.10;;;19.70;;
3249;SDS011;1637;42.020;23.992;2022-08-11T04:46:14;52.57;;;32.10;;
3249;SDS011;1637;42.020;23.992;2022-08-11T04:49:05;119.37;;;91.33;;
3249;SDS011;1637;42.020;23.992;2022-08-11T04:52:15;76.80;;;55.60;;
3249;SDS011;1637;42.020;23.992;2022-08-11T04:55:31;76.90;;;51.77;;
3249;SDS011;1637;42.020;23.992;2022-08-11T04:58:43;84.60;;;52.60;;
3249;SDS011;1637;42.020;23.992;2022-08-11T05:01:39;50.80;;;38.83;;
3249;SDS011;1637;42.020;23.992;2022-08-11T05:04:26;34.50;;;24.97;;
3249;SDS011;1637;42.020;23.992;2022-08-11T05:07:59;42.60;;;29.97;;
3249;SDS011;1637;42.020;23.992;2022-08-11T05:10:54;32.87;;;26.27;;
3249;SDS011;1637;42.020;23.992;2022-08-11T05:13:29;38.33;;;31.43;;
3249;SDS011;1637;42.020;23.992;2022-08-11T05:16:17;52.20;;;35.30;;
3249;SDS011;1637;42.020;23.992;2022-08-11T05:19:06;47.20;;;35.70;;
3249;SDS011;1637;42.020;23.992;2022-08-11T05:21:59;36.23;;;23.30;;
3249;SDS011;1637;42.020;23.992;2022-08-11T05:24:46;32.07;;;23.17;;
3249;SDS011;1637;42.020;23.992;2022-08-11T05:27:37;23.80;;;16.73;;
3249;SDS011;1637;42.020;23.992;2022-08-11T05:30:28;20.47;;;16.23;;
3249;SDS011;1637;42.020;23.992;2022-08-11T05:33:17;23.93;;;15.20;;
3249;SDS011;1637;42.020;23.992;2022-08-11T05:36:07;13.70;;;11.57;;
3249;SDS011;1637;42.020;23.992;2022-08-11T05:38:41;24.40;;;12.93;;
3249;SDS011;1637;42.020;23.992;2022-08-11T05:41:37;20.03;;;13.00;;
3249;SDS011;1637;42.020;23.992;2022-08-11T05:44:24;13.90;;;10.90;;
3249;SDS011;1637;42.020;23.992;2022-08-11T05:47:10;22.13;;;13.40;;
3249;SDS011;1637;42.020;23.992;2022-08-11T05:50:05;15.57;;;12.40;;
3249;SDS011;1637;42.020;23.992;2022-08-11T05:52:52;21.00;;;13.90;;
3249;SDS011;1637;42.020;23.992;2022-08-11T05:55:38;19.80;;;13.70;;
3249;SDS011;1637;42.020;23.992;2022-08-11T05:58:24;22.73;;;14.93;;
3249;SDS011;1637;42.020;23.992;2022-08-11T06:00:53;16.10;;;12.77;;
3249;SDS011;1637;42.020;23.992;2022-08-11T06:03:21;18.73;;;10.90;;
3249;SDS011;1637;42.020;23.992;2022-08-11T06:05:52;7.97;;;7.23;;
3249;SDS011;1637;42.020;23.992;2022-08-11T06:08:26;9.03;;;6.97;;
3249;SDS011;1637;42.020;23.992;2022-08-11T06:10:59;8.57;;;7.00;;
3249;SDS011;1637;42.020;23.992;2022-08-11T06:13:28;8.13;;;7.37;;
3249;SDS011;1637;42.020;23.992;2022-08-11T06:15:58;12.60;;;9.00;;
3249;SDS011;1637;42.020;23.992;2022-08-11T06:18:25;16.80;;;9.47;;
3249;SDS011;1637;42.020;23.992;2022-08-11T06:20:55;19.33;;;9.53;;
3249;SDS011;1637;42.020;23.992;2022-08-11T06:23:25;18.30;;;12.30;;
3249;SDS011;1637;42.020;23.992;2022-08-11T06:25:57;19.27;;;13.13;;
3249;SDS011;1637;42.020;23.992;2022-08-11T06:28:30;11.90;;;7.63;;
3249;SDS011;1637;42.020;23.992;2022-08-11T06:30:59;14.40;;;8.80;;
3249;SDS011;1637;42.020;23.992;2022-08-11T06:33:29;10.27;;;6.70;;
3249;SDS011;1637;42.020;23.992;2022-08-11T06:36:01;29.63;;;18.80;;
3249;SDS011;1637;42.020;23.992;2022-08-11T06:38:41;18.70;;;14.70;;
3249;SDS011;1637;42.020;23.992;2022-08-11T06:41:19;12.53;;;7.77;;
3249;SDS011;1637;42.020;23.992;2022-08-11T06:44:00;20.03;;;12.60;;
3249;SDS011;1637;42.020;23.992;2022-08-11T06:46:36;21.53;;;12.00;;
3249;SDS011;1637;42.020;23.992;2022-08-11T06:49:05;15.50;;;10.60;;
3249;SDS011;1637;42.020;23.992;2022-08-11T06:51:54;8.90;;;7.17;;
3249;SDS011;1637;42.020;23.992;2022-08-11T06:54:22;7.87;;;7.07;;
3249;SDS011;1637;42.020;23.992;2022-08-11T06:56:50;10.50;;;7.63;;
3249;SDS011;1637;42.020;23.992;2022-08-11T06:59:35;9.17;;;6.60;;
3249;SDS011;1637;42.020;23.992;2022-08-11T07:02:23;7.30;;;6.57;;
3249;SDS011;1637;42.020;23.992;2022-08-11T07:04:58;7.63;;;6.60;;
3249;SDS011;1637;42.020;23.992;2022-08-11T07:11:00;10.30;;;7.10;;
3249;SDS011;1637;42.020;23.992;2022-08-11T07:14:17;10.77;;;5.17;;
3249;SDS011;1637;42.020;23.992;2022-08-11T07:23:50;9.07;;;5.87;;
3249;SDS011;1637;42.020;23.992;2022-08-11T07:26:38;10.57;;;6.80;;
3249;SDS011;1637;42.020;23.992;2022-08-11T07:29:26;6.37;;;5.67;;
3249;SDS011;1637;42.020;23.992;2022-08-11T07:31:57;7.10;;;5.40;;
3249;SDS011;1637;42.020;23.992;2022-08-11T07:34:33;4.53;;;3.60;;
3249;SDS011;1637;42.020;23.992;2022-08-11T07:37:03;4.73;;;4.33;;
3249;SDS011;1637;42.020;23.992;2022-08-11T07:39:38;5.27;;;4.77;;
3249;SDS011;1637;42.020;23.992;2022-08-11T07:42:09;24.80;;;5.77;;
3249;SDS011;1637;42.020;23.992;2022-08-11T07:44:38;5.33;;;4.80;;
3249;SDS011;1637;42.020;23.992;2022-08-11T07:47:20;4.63;;;4.23;;
3249;SDS011;1637;42.020;23.992;2022-08-11T07:50:06;8.77;;;5.47;;
3249;SDS011;1637;42.020;23.992;2022-08-11T07:52:52;5.73;;;3.70;;
3249;SDS011;1637;42.020;23.992;2022-08-11T07:55:21;12.53;;;10.33;;
3249;SDS011;1637;42.020;23.992;2022-08-11T07:57:50;4.70;;;4.20;;
3249;SDS011;1637;42.020;23.992;2022-08-11T08:00:35;3.20;;;2.93;;
3249;SDS011;1637;42.020;23.992;2022-08-11T08:03:21;4.87;;;4.33;;
3249;SDS011;1637;42.020;23.992;2022-08-11T08:06:06;5.27;;;3.00;;
3249;SDS011;1637;42.020;23.992;2022-08-11T08:08:50;10.87;;;8.20;;
3249;SDS011;1637;42.020;23.992;2022-08-11T08:11:37;32.23;;;27.20;;
3249;SDS011;1637;42.020;23.992;2022-08-11T08:14:22;35.33;;;28.70;;
3249;SDS011;1637;42.020;23.992;2022-08-11T08:17:08;7.60;;;5.70;;
3249;SDS011;1637;42.020;23.992;2022-08-11T08:19:53;10.70;;;5.30;;
3249;SDS011;1637;42.020;23.992;2022-08-11T08:22:21;12.60;;;7.77;;
3249;SDS011;1637;42.020;23.992;2022-08-11T08:24:48;11.07;;;4.30;;
3249;SDS011;1637;42.020;23.992;2022-08-11T08:27:16;22.87;;;19.30;;
3249;SDS011;1637;42.020;23.992;2022-08-11T08:29:45;8.40;;;7.60;;
3249;SDS011;1637;42.020;23.992;2022-08-11T08:32:31;3.40;;;2.83;;
3249;SDS011;1637;42.020;23.992;2022-08-11T08:35:03;6.57;;;5.97;;
3249;SDS011;1637;42.020;23.992;2022-08-11T08:37:31;7.80;;;3.17;;
3249;SDS011;1637;42.020;23.992;2022-08-11T08:39:58;9.20;;;3.10;;
3249;SDS011;1637;42.020;23.992;2022-08-11T08:42:27;11.90;;;10.70;;
3249;SDS011;1637;42.020;23.992;2022-08-11T08:44:57;29.60;;;21.00;;
3249;SDS011;1637;42.020;23.992;2022-08-11T08:47:29;7.27;;;4.73;;
3249;SDS011;1637;42.020;23.992;2022-08-11T08:50:02;6.83;;;5.67;;
3249;SDS011;1637;42.020;23.992;2022-08-11T08:52:33;12.03;;;8.30;;
3249;SDS011;1637;42.020;23.992;2022-08-11T08:55:05;3.73;;;3.43;;
3249;SDS011;1637;42.020;23.992;2022-08-11T08:57:35;5.47;;;3.20;;
3249;SDS011;1637;42.020;23.992;2022-08-11T09:00:04;4.33;;;2.80;;
3249;SDS011;1637;42.020;23.992;2022-08-11T09:02:32;11.17;;;8.20;;
3249;SDS011;1637;42.020;23.992;2022-08-11T09:05:00;11.63;;;10.43;;
3249;SDS011;1637;42.020;23.992;2022-08-11T09:07:28;4.73;;;4.20;;
3249;SDS011;1637;42.020;23.992;2022-08-11T09:09:57;5.80;;;5.30;;
3249;SDS011;1637;42.020;23.992;2022-08-11T09:12:25;2.40;;;2.20;;
3249;SDS011;1637;42.020;23.992;2022-08-11T09:14:55;2.37;;;2.10;;
3249;SDS011;1637;42.020;23.992;2022-08-11T09:17:28;3.80;;;2.60;;
3249;SDS011;1637;42.020;23.992;2022-08-11T09:19:58;6.57;;;5.97;;
3249;SDS011;1637;42.020;23.992;2022-08-11T09:22:28;18.80;;;8.77;;
3249;SDS011;1637;42.020;23.992;2022-08-11T09:25:14;4.40;;;4.00;;
3249;SDS011;1637;42.020;23.992;2022-08-11T09:27:59;7.87;;;6.57;;
3249;SDS011;1637;42.020;23.992;2022-08-11T09:30:30;23.30;;;6.13;;
3249;SDS011;1637;42.020;23.992;2022-08-11T09:33:00;17.83;;;12.00;;
3249;SDS011;1637;42.020;23.992;2022-08-11T09:35:30;9.60;;;5.50;;
3249;SDS011;1637;42.020;23.992;2022-08-11T09:38:01;5.40;;;4.47;;
3249;SDS011;1637;42.020;23.992;2022-08-11T09:40:47;9.23;;;3.70;;
3249;SDS011;1637;42.020;23.992;2022-08-11T09:43:16;7.60;;;4.10;;
3249;SDS011;1637;42.020;23.992;2022-08-11T09:46:04;2.50;;;2.30;;
3249;SDS011;1637;42.020;23.992;2022-08-11T09:48:34;5.40;;;3.70;;
3249;SDS011;1637;42.020;23.992;2022-08-11T09:51:04;9.13;;;2.80;;
3249;SDS011;1637;42.020;23.992;2022-08-11T09:53:34;2.40;;;2.20;;
3249;SDS011;1637;42.020;23.992;2022-08-11T09:56:02;2.30;;;2.10;;
3249;SDS011;1637;42.020;23.992;2022-08-11T09:58:50;6.07;;;3.70;;
3249;SDS011;1637;42.020;23.992;2022-08-11T10:01:19;7.43;;;5.57;;
3249;SDS011;1637;42.020;23.992;2022-08-11T10:03:58;3.50;;;3.20;;
3249;SDS011;1637;42.020;23.992;2022-08-11T10:06:29;3.03;;;2.73;;
3249;SDS011;1637;42.020;23.992;2022-08-11T10:09:16;6.50;;;3.47;;
3249;SDS011;1637;42.020;23.992;2022-08-11T10:11:45;4.53;;;3.00;;
3249;SDS011;1637;42.020;23.992;2022-08-11T10:14:13;2.87;;;2.67;;
3249;SDS011;1637;42.020;23.992;2022-08-11T10:17:01;2.53;;;2.33;;
3249;SDS011;1637;42.020;23.992;2022-08-11T10:19:32;3.80;;;3.40;;
3249;SDS011;1637;42.020;23.992;2022-08-11T10:22:01;4.97;;;3.77;;
3249;SDS011;1637;42.020;23.992;2022-08-11T10:24:46;3.43;;;2.60;;
3249;SDS011;1637;42.020;23.992;2022-08-11T10:27:31;10.80;;;2.40;;
3249;SDS011;1637;42.020;23.992;2022-08-11T10:29:58;3.47;;;1.97;;
3249;SDS011;1637;42.020;23.992;2022-08-11T10:32:45;3.63;;;3.03;;
3249;SDS011;1637;42.020;23.992;2022-08-11T10:35:32;2.17;;;1.83;;
3249;SDS011;1637;42.020;23.992;2022-08-11T10:38:00;3.20;;;2.07;;
3249;SDS011;1637;42.020;23.992;2022-08-11T10:40:28;3.27;;;2.03;;
3249;SDS011;1637;42.020;23.992;2022-08-11T10:42:57;14.83;;;2.10;;
3249;SDS011;1637;42.020;23.992;2022-08-11T10:45:28;3.10;;;2.53;;
3249;SDS011;1637;42.020;23.992;2022-08-11T10:48:14;4.97;;;2.43;;
3249;SDS011;1637;42.020;23.992;2022-08-11T10:50:45;3.50;;;3.17;;
3249;SDS011;1637;42.020;23.992;2022-08-11T10:53:31;2.20;;;2.00;;
3249;SDS011;1637;42.020;23.992;2022-08-11T10:56:17;2.40;;;2.20;;
3249;SDS011;1637;42.020;23.992;2022-08-11T10:59:02;2.30;;;1.70;;
3249;SDS011;1637;42.020;23.992;2022-08-11T11:01:33;3.00;;;1.90;;
3249;SDS011;1637;42.020;23.992;2022-08-11T11:04:05;3.77;;;2.30;;
3249;SDS011;1637;42.020;23.992;2022-08-11T11:06:37;2.53;;;2.30;;
3249;SDS011;1637;42.020;23.992;2022-08-11T11:09:16;2.33;;;2.13;;
3249;SDS011;1637;42.020;23.992;2022-08-11T11:11:48;3.00;;;2.30;;
3249;SDS011;1637;42.020;23.992;2022-08-11T11:14:33;3.10;;;2.80;;
3249;SDS011;1637;42.020;23.992;2022-08-11T11:17:22;3.07;;;1.93;;
3249;SDS011;1637;42.020;23.992;2022-08-11T11:20:13;5.23;;;2.00;;
3249;SDS011;1637;42.020;23.992;2022-08-11T11:22:44;5.87;;;2.30;;
3249;SDS011;1637;42.020;23.992;2022-08-11T11:25:20;6.17;;;2.37;;
3249;SDS011;1637;42.020;23.992;2022-08-11T11:31:02;5.93;;;2.70;;
3249;SDS011;1637;42.020;23.992;2022-08-11T11:33:40;2.43;;;1.73;;
3249;SDS011;1637;42.020;23.992;2022-08-11T11:36:24;2.00;;;1.90;;
3249;SDS011;1637;42.020;23.992;2022-08-11T11:38:57;1.60;;;1.50;;
3249;SDS011;1637;42.020;23.992;2022-08-11T11:41:25;2.60;;;1.83;;
3249;SDS011;1637;42.020;23.992;2022-08-11T11:43:53;2.23;;;2.03;;
3249;SDS011;1637;42.020;23.992;2022-08-11T11:46:23;2.00;;;1.80;;
3249;SDS011;1637;42.020;23.992;2022-08-11T11:48:52;2.20;;;2.00;;
3249;SDS011;1637;42.020;23.992;2022-08-11T11:51:19;6.23;;;2.30;;
3249;SDS011;1637;42.020;23.992;2022-08-11T11:53:48;4.70;;;2.20;;
3249;SDS011;1637;42.020;23.992;2022-08-11T11:56:16;6.83;;;2.93;;
3249;SDS011;1637;42.020;23.992;2022-08-11T11:58:45;2.37;;;2.17;;
3249;SDS011;1637;42.020;23.992;2022-08-11T12:01:30;3.10;;;1.90;;
3249;SDS011;1637;42.020;23.992;2022-08-11T12:03:58;2.07;;;1.90;;
3249;SDS011;1637;42.020;23.992;2022-08-11T12:06:30;5.77;;;2.50;;
3249;SDS011;1637;42.020;23.992;2022-08-11T12:08:59;4.43;;;2.10;;
3249;SDS011;1637;42.020;23.992;2022-08-11T12:11:27;7.13;;;5.33;;
3249;SDS011;1637;42.020;23.992;2022-08-11T12:14:12;4.43;;;4.03;;
3249;SDS011;1637;42.020;23.992;2022-08-11T12:16:43;4.40;;;2.37;;
3249;SDS011;1637;42.020;23.992;2022-08-11T12:19:11;2.90;;;2.00;;
3249;SDS011;1637;42.020;23.992;2022-08-11T12:21:40;2.60;;;2.40;;
3249;SDS011;1637;42.020;23.992;2022-08-11T12:24:30;4.27;;;2.40;;
3249;SDS011;1637;42.020;23.992;2022-08-11T12:27:17;4.73;;;4.33;;
3249;SDS011;1637;42.020;23.992;2022-08-11T12:29:47;2.50;;;2.20;;
3249;SDS011;1637;42.020;23.992;2022-08-11T12:32:16;2.40;;;2.10;;
3249;SDS011;1637;42.020;23.992;2022-08-11T12:34:44;2.40;;;2.20;;
3249;SDS011;1637;42.020;23.992;2022-08-11T12:37:11;4.60;;;2.33;;
3249;SDS011;1637;42.020;23.992;2022-08-11T12:39:43;4.13;;;2.50;;
3249;SDS011;1637;42.020;23.992;2022-08-11T12:42:30;2.53;;;2.10;;
3249;SDS011;1637;42.020;23.992;2022-08-11T12:45:17;7.10;;;2.67;;
3249;SDS011;1637;42.020;23.992;2022-08-11T12:47:58;3.17;;;2.83;;
3249;SDS011;1637;42.020;23.992;2022-08-11T12:50:49;3.13;;;2.80;;
3249;SDS011;1637;42.020;23.992;2022-08-11T12:53:42;3.80;;;3.23;;
3249;SDS011;1637;42.020;23.992;2022-08-11T12:56:13;3.93;;;2.33;;
3249;SDS011;1637;42.020;23.992;2022-08-11T12:58:57;5.43;;;3.50;;
3249;SDS011;1637;42.020;23.992;2022-08-11T13:01:45;3.87;;;3.43;;
3249;SDS011;1637;42.020;23.992;2022-08-11T13:04:29;4.40;;;2.80;;
3249;SDS011;1637;42.020;23.992;2022-08-11T13:07:13;3.10;;;2.90;;
3249;SDS011;1637;42.020;23.992;2022-08-11T13:09:41;7.60;;;6.90;;
3249;SDS011;1637;42.020;23.992;2022-08-11T13:12:12;4.57;;;4.20;;
3249;SDS011;1637;42.020;23.992;2022-08-11T13:14:58;3.50;;;2.93;;
3249;SDS011;1637;42.020;23.992;2022-08-11T13:17:27;4.40;;;3.00;;
3249;SDS011;1637;42.020;23.992;2022-08-11T13:19:55;2.97;;;2.70;;
3249;SDS011;1637;42.020;23.992;2022-08-11T13:22:24;3.37;;;3.00;;
3249;SDS011;1637;42.020;23.992;2022-08-11T13:24:51;2.83;;;2.40;;
3249;SDS011;1637;42.020;23.992;2022-08-11T13:27:21;4.23;;;3.50;;
3249;SDS011;1637;42.020;23.992;2022-08-11T13:29:50;4.40;;;2.50;;
3249;SDS011;1637;42.020;23.992;2022-08-11T13:32:38;3.33;;;2.60;;
3249;SDS011;1637;42.020;23.992;2022-08-11T13:35:07;3.33;;;2.30;;
3249;SDS011;1637;42.020;23.992;2022-08-11T13:37:35;3.43;;;3.00;;
3249;SDS011;1637;42.020;23.992;2022-08-11T13:40:04;5.53;;;3.03;;
3249;SDS011;1637;42.020;23.992;2022-08-11T13:42:33;3.90;;;2.63;;
3249;SDS011;1637;42.020;23.992;2022-08-11T13:45:01;3.37;;;2.40;;
3249;SDS011;1637;42.020;23.992;2022-08-11T13:47:30;2.87;;;2.67;;
3249;SDS011;1637;42.020;23.992;2022-08-11T13:49:57;7.93;;;4.10;;
3249;SDS011;1637;42.020;23.992;2022-08-11T13:52:24;7.43;;;6.70;;
3249;SDS011;1637;42.020;23.992;2022-08-11T13:54:53;6.90;;;4.83;;
3249;SDS011;1637;42.020;23.992;2022-08-11T13:57:20;6.63;;;3.40;;
3249;SDS011;1637;42.020;23.992;2022-08-11T13:59:51;5.70;;;2.83;;
3249;SDS011;1637;42.020;23.992;2022-08-11T14:02:33;3.20;;;2.23;;
3249;SDS011;1637;42.020;23.992;2022-08-11T14:05:04;2.00;;;1.90;;
3249;SDS011;1637;42.020;23.992;2022-08-11T14:07:36;2.40;;;2.20;;
3249;SDS011;1637;42.020;23.992;2022-08-11T14:10:05;2.83;;;2.30;;
3249;SDS011;1637;42.020;23.992;2022-08-11T14:12:34;2.10;;;1.90;;
3249;SDS011;1637;42.020;23.992;2022-08-11T14:15:23;2.97;;;2.07;;
3249;SDS011;1637;42.020;23.992;2022-08-11T14:17:57;2.20;;;1.90;;
3249;SDS011;1637;42.020;23.992;2022-08-11T14:20:30;2.97;;;2.57;;
3249;SDS011;1637;42.020;23.992;2022-08-11T14:23:13;12.43;;;3.40;;
3249;SDS011;1637;42.020;23.992;2022-08-11T14:25:40;2.60;;;2.40;;
3249;SDS011;1637;42.020;23.992;2022-08-11T14:28:29;2.20;;;2.00;;
3249;SDS011;1637;42.020;23.992;2022-08-11T14:31:00;4.40;;;4.00;;
3249;SDS011;1637;42.020;23.992;2022-08-11T14:33:29;9.73;;;3.37;;
3249;SDS011;1637;42.020;23.992;2022-08-11T14:35:57;8.47;;;3.80;;
3249;SDS011;1637;42.020;23.992;2022-08-11T14:38:25;7.03;;;2.90;;
3249;SDS011;1637;42.020;23.992;2022-08-11T14:40:51;7.60;;;2.83;;
3249;SDS011;1637;42.020;23.992;2022-08-11T14:43:36;3.70;;;2.50;;
3249;SDS011;1637;42.020;23.992;2022-08-11T14:46:22;4.37;;;2.60;;
3249;SDS011;1637;42.020;23.992;2022-08-11T14:49:06;5.87;;;2.83;;
3249;SDS011;1637;42.020;23.992;2022-08-11T14:51:33;5.23;;;3.20;;
3249;SDS011;1637;42.020;23.992;2022-08-11T14:54:00;12.77;;;6.90;;
3249;SDS011;1637;42.020;23.992;2022-08-11T14:56:42;8.20;;;4.17;;
3249;SDS011;1637;42.020;23.992;2022-08-11T14:59:09;2.80;;;2.60;;
3249;SDS011;1637;42.020;23.992;2022-08-11T15:01:39;8.53;;;2.30;;
3249;SDS011;1637;42.020;23.992;2022-08-11T15:04:25;10.87;;;3.20;;
3249;SDS011;1637;42.020;23.992;2022-08-11T15:06:52;9.00;;;2.50;;
3249;SDS011;1637;42.020;23.992;2022-08-11T15:09:19;9.10;;;3.60;;
3249;SDS011;1637;42.020;23.992;2022-08-11T15:11:46;21.17;;;4.10;;
3249;SDS011;1637;42.020;23.992;2022-08-11T15:14:30;11.00;;;3.50;;
3249;SDS011;1637;42.020;23.992;2022-08-11T15:17:16;9.33;;;2.90;;
3249;SDS011;1637;42.020;23.992;2022-08-11T15:19:44;5.20;;;2.73;;
3249;SDS011;1637;42.020;23.992;2022-08-11T15:22:26;9.23;;;3.63;;
3249;SDS011;1637;42.020;23.992;2022-08-11T15:25:10;7.17;;;3.37;;
3249;SDS011;1637;42.020;23.992;2022-08-11T15:27:37;19.17;;;3.10;;
3249;SDS011;1637;42.020;23.992;2022-08-11T15:30:23;7.43;;;3.93;;
3249;SDS011;1637;42.020;23.992;2022-08-11T15:33:10;4.17;;;3.20;;
3249;SDS011;1637;42.020;23.992;2022-08-11T15:35:59;5.90;;;4.03;;
3249;SDS011;1637;42.020;23.992;2022-08-11T15:38:50;7.00;;;3.77;;
3249;SDS011;1637;42.020;23.992;2022-08-11T15:41:27;6.53;;;2.90;;
3249;SDS011;1637;42.020;23.992;2022-08-11T15:44:18;9.73;;;3.57;;
3249;SDS011;1637;42.020;23.992;2022-08-11T15:47:04;12.17;;;3.17;;
3249;SDS011;1637;42.020;23.992;2022-08-11T15:49:36;3.20;;;2.67;;
3249;SDS011;1637;42.020;23.992;2022-08-11T15:52:05;9.60;;;3.37;;
3249;SDS011;1637;42.020;23.992;2022-08-11T15:54:37;7.73;;;4.53;;
3249;SDS011;1637;42.020;23.992;2022-08-11T15:57:06;83.70;;;53.73;;
3249;SDS011;1637;42.020;23.992;2022-08-11T15:59:55;11.30;;;7.50;;
3249;SDS011;1637;42.020;23.992;2022-08-11T16:02:42;3.00;;;2.70;;
3249;SDS011;1637;42.020;23.992;2022-08-11T16:05:30;2.20;;;1.97;;
3249;SDS011;1637;42.020;23.992;2022-08-11T16:07:58;4.20;;;2.83;;
3249;SDS011;1637;42.020;23.992;2022-08-11T16:10:27;11.63;;;2.83;;
3249;SDS011;1637;42.020;23.992;2022-08-11T16:12:56;3.83;;;2.50;;
3249;SDS011;1637;42.020;23.992;2022-08-11T16:15:43;4.10;;;2.30;;
3249;SDS011;1637;42.020;23.992;2022-08-11T16:18:30;3.90;;;2.63;;
3249;SDS011;1637;42.020;23.992;2022-08-11T16:21:08;4.87;;;2.90;;
3249;SDS011;1637;42.020;23.992;2022-08-11T16:23:39;4.37;;;2.60;;
3249;SDS011;1637;42.020;23.992;2022-08-11T16:26:08;5.90;;;3.20;;
3249;SDS011;1637;42.020;23.992;2022-08-11T16:28:37;4.40;;;2.87;;
3249;SDS011;1637;42.020;23.992;2022-08-11T16:31:08;5.33;;;4.43;;
3249;SDS011;1637;42.020;23.992;2022-08-11T16:33:38;13.57;;;2.70;;
3249;SDS011;1637;42.020;23.992;2022-08-11T16:36:06;2.60;;;2.40;;
3249;SDS011;1637;42.020;23.992;2022-08-11T16:38:52;6.47;;;3.17;;
3249;SDS011;1637;42.020;23.992;2022-08-11T16:41:22;9.90;;;4.60;;
3249;SDS011;1637;42.020;23.992;2022-08-11T16:44:08;3.50;;;3.20;;
3249;SDS011;1637;42.020;23.992;2022-08-11T16:46:54;4.60;;;3.80;;
3249;SDS011;1637;42.020;23.992;2022-08-11T16:49:27;7.07;;;5.47;;
3249;SDS011;1637;42.020;23.992;2022-08-11T16:51:58;6.90;;;4.53;;
3249;SDS011;1637;42.020;23.992;2022-08-11T16:54:28;7.17;;;3.60;;
3249;SDS011;1637;42.020;23.992;2022-08-11T16:56:56;10.60;;;3.43;;
3249;SDS011;1637;42.020;23.992;2022-08-11T16:59:45;10.03;;;3.53;;
3249;SDS011;1637;42.020;23.992;2022-08-11T17:02:14;5.30;;;3.37;;
3249;SDS011;1637;42.020;23.992;2022-08-11T17:05:07;5.77;;;3.70;;
3249;SDS011;1637;42.020;23.992;2022-08-11T17:07:55;6.87;;;3.00;;
3249;SDS011;1637;42.020;23.992;2022-08-11T17:10:52;7.53;;;3.50;;
3249;SDS011;1637;42.020;23.992;2022-08-11T17:13:49;10.80;;;4.50;;
3249;SDS011;1637;42.020;23.992;2022-08-11T17:16:21;8.03;;;3.63;;
3249;SDS011;1637;42.020;23.992;2022-08-11T17:18:58;12.63;;;3.27;;
3249;SDS011;1637;42.020;23.992;2022-08-11T17:21:29;11.27;;;3.60;;
3249;SDS011;1637;42.020;23.992;2022-08-11T17:24:00;7.63;;;3.97;;